sensor_id;sensor_type;location;lat;lon;timestamp;P1;durP1;ratioP1;P2;durP2;ratioP2
66212;SDS011;53015;50.046;8.238;2023-10-19T00:00:01;8.57;;;6.22;;
66212;SDS011;53015;50.046;8.238;2023-10-19T00:02:27;8.45;;;6.07;;
66212;SDS011;53015;50.046;8.238;2023-10-19T00:04:52;10.45;;;6.63;;
66212;SDS011;53015;50.046;8.238;2023-10-19T00:07:19;8.13;;;6.40;;
66212;SDS011;53015;50.046;8.238;2023-10-19T00:09:44;8.32;;;5.88;;
66212;SDS011;53015;50.046;8.238;2023-10-19T00:12:10;8.68;;;6.20;;
66212;SDS011;53015;50.046;8.238;2023-10-19T00:14:35;8.70;;;6.45;;
66212;SDS011;53015;50.046;8.238;2023-10-19T00:17:01;9.20;;;6.22;;
66212;SDS011;53015;50.046;8.238;2023-10-19T00:19:27;10.60;;;6.70;;
66212;SDS011;53015;50.046;8.238;2023-10-19T00:21:52;9.40;;;6.05;;
66212;SDS011;53015;50.046;8.238;2023-10-19T00:24:19;7.15;;;6.13;;
66212;SDS011;53015;50.046;8.238;2023-10-19T00:26:45;12.63;;;7.50;;
66212;SDS011;53015;50.046;8.238;2023-10-19T00:29:11;9.02;;;6.13;;
66212;SDS011;53015;50.046;8.238;2023-10-19T00:31:36;12.35;;;6.25;;
66212;SDS011;53015;50.046;8.238;2023-10-19T00:34:02;10.10;;;6.30;;
66212;SDS011;53015;50.046;8.238;2023-10-19T00:36:28;7.93;;;6.25;;
66212;SDS011;53015;50.046;8.238;2023-10-19T00:38:53;10.35;;;6.78;;
66212;SDS011;53015;50.046;8.238;2023-10-19T00:41:20;8.35;;;5.72;;
66212;SDS011;53015;50.046;8.238;2023-10-19T00:43:47;12.00;;;6.57;;
66212;SDS011;53015;50.046;8.238;2023-10-19T00:46:14;11.55;;;6.30;;
66212;SDS011;53015;50.046;8.238;2023-10-19T00:48:44;8.25;;;6.55;;
66212;SDS011;53015;50.046;8.238;2023-10-19T00:51:10;8.32;;;6.43;;
66212;SDS011;53015;50.046;8.238;2023-10-19T00:53:37;9.73;;;6.32;;
66212;SDS011;53015;50.046;8.238;2023-10-19T00:56:03;9.23;;;6.28;;
66212;SDS011;53015;50.046;8.238;2023-10-19T00:58:31;8.35;;;6.60;;
66212;SDS011;53015;50.046;8.238;2023-10-19T01:00:57;8.82;;;6.35;;
66212;SDS011;53015;50.046;8.238;2023-10-19T01:03:23;11.02;;;6.78;;
66212;SDS011;53015;50.046;8.238;2023-10-19T01:05:49;10.30;;;7.32;;
66212;SDS011;53015;50.046;8.238;2023-10-19T01:08:14;9.45;;;6.95;;
66212;SDS011;53015;50.046;8.238;2023-10-19T01:10:40;8.50;;;6.28;;
66212;SDS011;53015;50.046;8.238;2023-10-19T01:13:06;10.68;;;6.72;;
66212;SDS011;53015;50.046;8.238;2023-10-19T01:15:33;8.68;;;6.47;;
66212;SDS011;53015;50.046;8.238;2023-10-19T01:17:58;8.95;;;6.68;;
66212;SDS011;53015;50.046;8.238;2023-10-19T01:20:25;8.88;;;7.07;;
66212;SDS011;53015;50.046;8.238;2023-10-19T01:22:53;7.93;;;6.65;;
66212;SDS011;53015;50.046;8.238;2023-10-19T01:25:19;8.48;;;6.63;;
66212;SDS011;53015;50.046;8.238;2023-10-19T01:27:45;9.60;;;7.18;;
66212;SDS011;53015;50.046;8.238;2023-10-19T01:30:11;11.02;;;7.40;;
66212;SDS011;53015;50.046;8.238;2023-10-19T01:32:36;9.15;;;7.35;;
66212;SDS011;53015;50.046;8.238;2023-10-19T01:35:02;10.15;;;7.38;;
66212;SDS011;53015;50.046;8.238;2023-10-19T01:37:28;9.57;;;7.07;;
66212;SDS011;53015;50.046;8.238;2023-10-19T01:39:54;9.68;;;7.03;;
66212;SDS011;53015;50.046;8.238;2023-10-19T01:42:20;10.18;;;7.20;;
66212;SDS011;53015;50.046;8.238;2023-10-19T01:44:45;12.05;;;7.65;;
66212;SDS011;53015;50.046;8.238;2023-10-19T01:47:11;11.68;;;8.15;;
66212;SDS011;53015;50.046;8.238;2023-10-19T01:49:36;11.85;;;7.85;;
66212;SDS011;53015;50.046;8.238;2023-10-19T01:52:02;12.18;;;7.57;;
66212;SDS011;53015;50.046;8.238;2023-10-19T01:54:28;11.13;;;7.57;;
66212;SDS011;53015;50.046;8.238;2023-10-19T01:56:55;12.02;;;8.65;;
66212;SDS011;53015;50.046;8.238;2023-10-19T01:59:21;10.90;;;8.30;;
66212;SDS011;53015;50.046;8.238;2023-10-19T02:01:47;11.05;;;8.00;;
66212;SDS011;53015;50.046;8.238;2023-10-19T02:04:13;11.60;;;8.40;;
66212;SDS011;53015;50.046;8.238;2023-10-19T02:06:39;12.10;;;8.60;;
66212;SDS011;53015;50.046;8.238;2023-10-19T02:09:05;11.15;;;8.68;;
66212;SDS011;53015;50.046;8.238;2023-10-19T02:11:32;11.60;;;9.18;;
66212;SDS011;53015;50.046;8.238;2023-10-19T02:13:59;12.32;;;9.77;;
66212;SDS011;53015;50.046;8.238;2023-10-19T02:16:24;13.32;;;10.10;;
66212;SDS011;53015;50.046;8.238;2023-10-19T02:18:51;13.50;;;9.82;;
66212;SDS011;53015;50.046;8.238;2023-10-19T02:21:17;13.48;;;9.95;;
66212;SDS011;53015;50.046;8.238;2023-10-19T02:23:43;14.60;;;9.93;;
66212;SDS011;53015;50.046;8.238;2023-10-19T02:26:09;19.25;;;10.88;;
66212;SDS011;53015;50.046;8.238;2023-10-19T02:28:35;17.48;;;11.07;;
66212;SDS011;53015;50.046;8.238;2023-10-19T02:31:02;15.23;;;10.60;;
66212;SDS011;53015;50.046;8.238;2023-10-19T02:33:27;13.95;;;10.25;;
66212;SDS011;53015;50.046;8.238;2023-10-19T02:35:53;16.27;;;10.48;;
66212;SDS011;53015;50.046;8.238;2023-10-19T02:38:19;15.45;;;10.75;;
66212;SDS011;53015;50.046;8.238;2023-10-19T02:40:44;17.90;;;11.13;;
66212;SDS011;53015;50.046;8.238;2023-10-19T02:43:10;19.10;;;11.48;;
66212;SDS011;53015;50.046;8.238;2023-10-19T02:45:35;17.98;;;11.45;;
66212;SDS011;53015;50.046;8.238;2023-10-19T02:48:03;18.02;;;11.25;;
66212;SDS011;53015;50.046;8.238;2023-10-19T02:50:28;17.45;;;10.88;;
66212;SDS011;53015;50.046;8.238;2023-10-19T02:52:54;17.20;;;12.05;;
66212;SDS011;53015;50.046;8.238;2023-10-19T02:55:19;18.50;;;12.00;;
66212;SDS011;53015;50.046;8.238;2023-10-19T02:57:45;16.58;;;11.68;;
66212;SDS011;53015;50.046;8.238;2023-10-19T03:00:11;17.02;;;11.50;;
66212;SDS011;53015;50.046;8.238;2023-10-19T03:02:37;19.17;;;11.60;;
66212;SDS011;53015;50.046;8.238;2023-10-19T03:05:05;19.45;;;12.50;;
66212;SDS011;53015;50.046;8.238;2023-10-19T03:07:31;20.23;;;12.63;;
66212;SDS011;53015;50.046;8.238;2023-10-19T03:09:56;19.77;;;12.73;;
66212;SDS011;53015;50.046;8.238;2023-10-19T03:12:22;19.42;;;12.85;;
66212;SDS011;53015;50.046;8.238;2023-10-19T03:14:47;17.83;;;12.55;;
66212;SDS011;53015;50.046;8.238;2023-10-19T03:17:13;20.85;;;13.15;;
66212;SDS011;53015;50.046;8.238;2023-10-19T03:19:38;20.73;;;13.32;;
66212;SDS011;53015;50.046;8.238;2023-10-19T03:22:05;18.50;;;12.30;;
66212;SDS011;53015;50.046;8.238;2023-10-19T03:24:31;20.65;;;12.93;;
66212;SDS011;53015;50.046;8.238;2023-10-19T03:26:57;19.65;;;12.90;;
66212;SDS011;53015;50.046;8.238;2023-10-19T03:29:22;24.95;;;13.77;;
66212;SDS011;53015;50.046;8.238;2023-10-19T03:31:48;25.13;;;14.52;;
66212;SDS011;53015;50.046;8.238;2023-10-19T03:34:14;21.33;;;14.10;;
66212;SDS011;53015;50.046;8.238;2023-10-19T03:36:39;25.55;;;15.43;;
66212;SDS011;53015;50.046;8.238;2023-10-19T03:39:08;25.20;;;14.05;;
66212;SDS011;53015;50.046;8.238;2023-10-19T03:41:34;27.58;;;15.27;;
66212;SDS011;53015;50.046;8.238;2023-10-19T03:43:59;25.08;;;14.38;;
66212;SDS011;53015;50.046;8.238;2023-10-19T03:46:25;28.58;;;15.95;;
66212;SDS011;53015;50.046;8.238;2023-10-19T03:48:50;27.65;;;15.60;;
66212;SDS011;53015;50.046;8.238;2023-10-19T03:51:16;27.02;;;15.63;;
66212;SDS011;53015;50.046;8.238;2023-10-19T03:53:42;30.08;;;16.23;;
66212;SDS011;53015;50.046;8.238;2023-10-19T03:56:09;28.95;;;16.88;;
66212;SDS011;53015;50.046;8.238;2023-10-19T03:58:34;33.17;;;17.50;;
66212;SDS011;53015;50.046;8.238;2023-10-19T04:01:00;36.72;;;18.45;;
66212;SDS011;53015;50.046;8.238;2023-10-19T04:03:25;32.50;;;19.02;;
66212;SDS011;53015;50.046;8.238;2023-10-19T04:05:51;37.10;;;19.48;;
66212;SDS011;53015;50.046;8.238;2023-10-19T04:08:16;38.92;;;20.02;;
66212;SDS011;53015;50.046;8.238;2023-10-19T04:10:42;40.63;;;18.90;;
66212;SDS011;53015;50.046;8.238;2023-10-19T04:13:09;38.25;;;19.35;;
66212;SDS011;53015;50.046;8.238;2023-10-19T04:15:35;39.35;;;20.13;;
66212;SDS011;53015;50.046;8.238;2023-10-19T04:18:01;33.50;;;18.75;;
66212;SDS011;53015;50.046;8.238;2023-10-19T04:20:28;35.40;;;18.33;;
66212;SDS011;53015;50.046;8.238;2023-10-19T04:22:53;34.92;;;18.67;;
66212;SDS011;53015;50.046;8.238;2023-10-19T04:25:19;41.15;;;19.48;;
66212;SDS011;53015;50.046;8.238;2023-10-19T04:27:45;35.05;;;18.85;;
66212;SDS011;53015;50.046;8.238;2023-10-19T04:30:13;37.10;;;18.60;;
66212;SDS011;53015;50.046;8.238;2023-10-19T04:32:40;36.50;;;18.25;;
66212;SDS011;53015;50.046;8.238;2023-10-19T04:35:06;38.55;;;19.40;;
66212;SDS011;53015;50.046;8.238;2023-10-19T04:37:31;41.10;;;19.33;;
66212;SDS011;53015;50.046;8.238;2023-10-19T04:39:57;38.53;;;19.33;;
66212;SDS011;53015;50.046;8.238;2023-10-19T04:42:23;40.55;;;19.63;;
66212;SDS011;53015;50.046;8.238;2023-10-19T04:44:48;39.90;;;20.65;;
66212;SDS011;53015;50.046;8.238;2023-10-19T04:47:15;38.85;;;20.65;;
66212;SDS011;53015;50.046;8.238;2023-10-19T04:49:41;42.22;;;21.02;;
66212;SDS011;53015;50.046;8.238;2023-10-19T04:52:06;46.65;;;20.70;;
66212;SDS011;53015;50.046;8.238;2023-10-19T04:54:32;37.90;;;19.02;;
66212;SDS011;53015;50.046;8.238;2023-10-19T04:56:57;38.25;;;19.27;;
66212;SDS011;53015;50.046;8.238;2023-10-19T04:59:23;46.08;;;19.80;;
66212;SDS011;53015;50.046;8.238;2023-10-19T05:01:48;37.95;;;20.15;;
66212;SDS011;53015;50.046;8.238;2023-10-19T05:04:15;44.28;;;20.77;;
66212;SDS011;53015;50.046;8.238;2023-10-19T05:06:42;39.45;;;20.73;;
66212;SDS011;53015;50.046;8.238;2023-10-19T05:09:07;38.20;;;19.02;;
66212;SDS011;53015;50.046;8.238;2023-10-19T05:11:33;39.65;;;19.88;;
66212;SDS011;53015;50.046;8.238;2023-10-19T05:13:58;35.35;;;18.88;;
66212;SDS011;53015;50.046;8.238;2023-10-19T05:16:24;40.35;;;19.13;;
66212;SDS011;53015;50.046;8.238;2023-10-19T05:18:49;36.38;;;18.08;;
66212;SDS011;53015;50.046;8.238;2023-10-19T05:21:16;33.33;;;18.08;;
66212;SDS011;53015;50.046;8.238;2023-10-19T05:23:42;35.38;;;18.20;;
66212;SDS011;53015;50.046;8.238;2023-10-19T05:26:07;31.17;;;17.38;;
66212;SDS011;53015;50.046;8.238;2023-10-19T05:28:33;31.17;;;18.00;;
66212;SDS011;53015;50.046;8.238;2023-10-19T05:30:58;29.45;;;17.02;;
66212;SDS011;53015;50.046;8.238;2023-10-19T05:33:24;36.63;;;17.77;;
66212;SDS011;53015;50.046;8.238;2023-10-19T05:35:49;32.25;;;17.90;;
66212;SDS011;53015;50.046;8.238;2023-10-19T05:38:17;31.40;;;18.38;;
66212;SDS011;53015;50.046;8.238;2023-10-19T05:40:43;32.85;;;18.35;;
66212;SDS011;53015;50.046;8.238;2023-10-19T05:43:08;30.08;;;17.10;;
66212;SDS011;53015;50.046;8.238;2023-10-19T05:45:34;32.63;;;17.30;;
66212;SDS011;53015;50.046;8.238;2023-10-19T05:47:59;32.33;;;18.02;;
66212;SDS011;53015;50.046;8.238;2023-10-19T05:50:25;29.48;;;17.20;;
66212;SDS011;53015;50.046;8.238;2023-10-19T05:52:50;31.92;;;17.25;;
66212;SDS011;53015;50.046;8.238;2023-10-19T05:55:17;32.75;;;16.40;;
66212;SDS011;53015;50.046;8.238;2023-10-19T05:57:43;27.50;;;17.08;;
66212;SDS011;53015;50.046;8.238;2023-10-19T06:00:09;27.90;;;16.80;;
66212;SDS011;53015;50.046;8.238;2023-10-19T06:02:36;36.10;;;16.38;;
66212;SDS011;53015;50.046;8.238;2023-10-19T06:05:01;31.45;;;17.42;;
66212;SDS011;53015;50.046;8.238;2023-10-19T06:07:27;32.60;;;17.95;;
66212;SDS011;53015;50.046;8.238;2023-10-19T06:09:53;30.42;;;16.13;;
66212;SDS011;53015;50.046;8.238;2023-10-19T06:12:19;30.88;;;16.58;;
66212;SDS011;53015;50.046;8.238;2023-10-19T06:14:45;30.60;;;17.67;;
66212;SDS011;53015;50.046;8.238;2023-10-19T06:17:10;30.92;;;17.30;;
66212;SDS011;53015;50.046;8.238;2023-10-19T06:19:36;33.80;;;17.58;;
66212;SDS011;53015;50.046;8.238;2023-10-19T06:22:01;33.05;;;17.38;;
66212;SDS011;53015;50.046;8.238;2023-10-19T06:24:27;38.78;;;18.95;;
66212;SDS011;53015;50.046;8.238;2023-10-19T06:26:52;34.33;;;17.85;;
66212;SDS011;53015;50.046;8.238;2023-10-19T06:29:19;40.05;;;19.70;;
66212;SDS011;53015;50.046;8.238;2023-10-19T06:31:45;39.17;;;19.70;;
66212;SDS011;53015;50.046;8.238;2023-10-19T06:34:10;36.50;;;18.42;;
66212;SDS011;53015;50.046;8.238;2023-10-19T06:36:36;43.30;;;18.98;;
66212;SDS011;53015;50.046;8.238;2023-10-19T06:39:02;38.42;;;17.63;;
66212;SDS011;53015;50.046;8.238;2023-10-19T06:41:28;45.75;;;19.52;;
66212;SDS011;53015;50.046;8.238;2023-10-19T06:43:53;51.60;;;21.88;;
66212;SDS011;53015;50.046;8.238;2023-10-19T06:46:20;52.67;;;23.08;;
66212;SDS011;53015;50.046;8.238;2023-10-19T06:48:45;53.05;;;21.67;;
66212;SDS011;53015;50.046;8.238;2023-10-19T06:51:11;53.15;;;22.48;;
66212;SDS011;53015;50.046;8.238;2023-10-19T06:53:36;52.67;;;22.58;;
66212;SDS011;53015;50.046;8.238;2023-10-19T06:56:02;52.75;;;22.52;;
66212;SDS011;53015;50.046;8.238;2023-10-19T06:58:27;54.15;;;23.30;;
66212;SDS011;53015;50.046;8.238;2023-10-19T07:00:53;62.50;;;23.88;;
66212;SDS011;53015;50.046;8.238;2023-10-19T07:03:20;66.93;;;24.35;;
66212;SDS011;53015;50.046;8.238;2023-10-19T07:05:45;71.93;;;25.58;;
66212;SDS011;53015;50.046;8.238;2023-10-19T07:08:11;82.53;;;29.45;;
66212;SDS011;53015;50.046;8.238;2023-10-19T07:10:36;62.20;;;26.08;;
66212;SDS011;53015;50.046;8.238;2023-10-19T07:13:02;64.43;;;25.15;;
66212;SDS011;53015;50.046;8.238;2023-10-19T07:15:27;55.13;;;25.98;;
66212;SDS011;53015;50.046;8.238;2023-10-19T07:17:53;50.15;;;23.08;;
66212;SDS011;53015;50.046;8.238;2023-10-19T07:20:20;48.92;;;20.45;;
66212;SDS011;53015;50.046;8.238;2023-10-19T07:22:46;39.92;;;18.48;;
66212;SDS011;53015;50.046;8.238;2023-10-19T07:25:12;32.95;;;18.35;;
66212;SDS011;53015;50.046;8.238;2023-10-19T07:27:37;32.47;;;17.05;;
66212;SDS011;53015;50.046;8.238;2023-10-19T07:30:03;30.85;;;17.33;;
66212;SDS011;53015;50.046;8.238;2023-10-19T07:32:29;41.17;;;17.83;;
66212;SDS011;53015;50.046;8.238;2023-10-19T07:34:54;36.97;;;18.25;;
66212;SDS011;53015;50.046;8.238;2023-10-19T07:37:23;33.30;;;18.83;;
66212;SDS011;53015;50.046;8.238;2023-10-19T07:39:48;35.85;;;19.70;;
66212;SDS011;53015;50.046;8.238;2023-10-19T07:42:14;31.63;;;18.55;;
66212;SDS011;53015;50.046;8.238;2023-10-19T07:44:39;38.40;;;18.58;;
66212;SDS011;53015;50.046;8.238;2023-10-19T07:47:05;34.78;;;18.10;;
66212;SDS011;53015;50.046;8.238;2023-10-19T07:49:30;33.03;;;17.73;;
66212;SDS011;53015;50.046;8.238;2023-10-19T07:51:56;37.60;;;17.88;;
66212;SDS011;53015;50.046;8.238;2023-10-19T07:54:23;37.45;;;17.58;;
66212;SDS011;53015;50.046;8.238;2023-10-19T07:56:48;32.80;;;17.17;;
66212;SDS011;53015;50.046;8.238;2023-10-19T07:59:14;38.05;;;18.67;;
66212;SDS011;53015;50.046;8.238;2023-10-19T08:01:39;36.63;;;18.48;;
66212;SDS011;53015;50.046;8.238;2023-10-19T08:04:05;34.75;;;18.33;;
66212;SDS011;53015;50.046;8.238;2023-10-19T08:06:30;36.58;;;17.88;;
66212;SDS011;53015;50.046;8.238;2023-10-19T08:08:56;34.28;;;17.67;;
66212;SDS011;53015;50.046;8.238;2023-10-19T08:11:23;33.08;;;18.60;;
66212;SDS011;53015;50.046;8.238;2023-10-19T08:13:48;33.50;;;18.13;;
66212;SDS011;53015;50.046;8.238;2023-10-19T08:16:14;32.67;;;18.15;;
66212;SDS011;53015;50.046;8.238;2023-10-19T08:18:40;27.17;;;16.65;;
66212;SDS011;53015;50.046;8.238;2023-10-19T08:21:05;34.03;;;18.10;;
66212;SDS011;53015;50.046;8.238;2023-10-19T08:23:31;32.40;;;17.50;;
66212;SDS011;53015;50.046;8.238;2023-10-19T08:25:56;28.05;;;17.45;;
66212;SDS011;53015;50.046;8.238;2023-10-19T08:28:23;31.45;;;18.02;;
66212;SDS011;53015;50.046;8.238;2023-10-19T08:30:49;32.15;;;17.67;;
66212;SDS011;53015;50.046;8.238;2023-10-19T08:33:14;32.58;;;18.63;;
66212;SDS011;53015;50.046;8.238;2023-10-19T08:35:40;33.92;;;19.60;;
66212;SDS011;53015;50.046;8.238;2023-10-19T08:38:05;36.90;;;20.40;;
66212;SDS011;53015;50.046;8.238;2023-10-19T08:40:31;34.00;;;18.35;;
66212;SDS011;53015;50.046;8.238;2023-10-19T08:42:57;39.97;;;20.70;;
66212;SDS011;53015;50.046;8.238;2023-10-19T08:45:23;43.58;;;22.30;;
66212;SDS011;53015;50.046;8.238;2023-10-19T08:47:52;58.28;;;23.42;;
66212;SDS011;53015;50.046;8.238;2023-10-19T08:50:19;76.05;;;26.65;;
66212;SDS011;53015;50.046;8.238;2023-10-19T08:52:45;47.95;;;24.02;;
66212;SDS011;53015;50.046;8.238;2023-10-19T08:55:11;44.83;;;21.92;;
66212;SDS011;53015;50.046;8.238;2023-10-19T08:57:37;47.53;;;20.77;;
66212;SDS011;53015;50.046;8.238;2023-10-19T09:00:02;49.00;;;20.55;;
66212;SDS011;53015;50.046;8.238;2023-10-19T09:02:30;45.30;;;19.52;;
66212;SDS011;53015;50.046;8.238;2023-10-19T09:04:55;36.08;;;18.45;;
66212;SDS011;53015;50.046;8.238;2023-10-19T09:07:21;34.75;;;19.02;;
66212;SDS011;53015;50.046;8.238;2023-10-19T09:09:46;31.48;;;18.08;;
66212;SDS011;53015;50.046;8.238;2023-10-19T09:12:12;32.42;;;18.50;;
66212;SDS011;53015;50.046;8.238;2023-10-19T09:14:38;35.63;;;20.38;;
66212;SDS011;53015;50.046;8.238;2023-10-19T09:17:03;40.22;;;20.90;;
66212;SDS011;53015;50.046;8.238;2023-10-19T09:19:40;39.53;;;19.92;;
66212;SDS011;53015;50.046;8.238;2023-10-19T09:22:07;43.22;;;21.35;;
66212;SDS011;53015;50.046;8.238;2023-10-19T09:24:33;48.35;;;21.73;;
66212;SDS011;53015;50.046;8.238;2023-10-19T09:26:59;45.10;;;19.98;;
66212;SDS011;53015;50.046;8.238;2023-10-19T09:29:26;46.92;;;20.17;;
66212;SDS011;53015;50.046;8.238;2023-10-19T09:31:51;37.63;;;18.35;;
66212;SDS011;53015;50.046;8.238;2023-10-19T09:34:20;30.50;;;17.20;;
66212;SDS011;53015;50.046;8.238;2023-10-19T09:36:47;32.83;;;18.85;;
66212;SDS011;53015;50.046;8.238;2023-10-19T09:39:13;37.75;;;20.73;;
66212;SDS011;53015;50.046;8.238;2023-10-19T09:41:38;40.90;;;21.00;;
66212;SDS011;53015;50.046;8.238;2023-10-19T09:44:05;43.28;;;20.95;;
66212;SDS011;53015;50.046;8.238;2023-10-19T09:46:33;46.03;;;20.63;;
66212;SDS011;53015;50.046;8.238;2023-10-19T09:49:02;36.80;;;19.15;;
66212;SDS011;53015;50.046;8.238;2023-10-19T09:51:28;29.10;;;16.98;;
66212;SDS011;53015;50.046;8.238;2023-10-19T09:53:57;27.42;;;16.80;;
66212;SDS011;53015;50.046;8.238;2023-10-19T09:56:26;28.67;;;16.33;;
66212;SDS011;53015;50.046;8.238;2023-10-19T09:58:57;29.17;;;15.15;;
66212;SDS011;53015;50.046;8.238;2023-10-19T10:01:27;24.42;;;13.90;;
66212;SDS011;53015;50.046;8.238;2023-10-19T10:03:53;21.00;;;12.40;;
66212;SDS011;53015;50.046;8.238;2023-10-19T10:06:26;21.10;;;13.98;;
66212;SDS011;53015;50.046;8.238;2023-10-19T10:08:55;18.50;;;12.57;;
66212;SDS011;53015;50.046;8.238;2023-10-19T10:11:22;21.85;;;13.23;;
66212;SDS011;53015;50.046;8.238;2023-10-19T10:13:49;22.15;;;13.68;;
66212;SDS011;53015;50.046;8.238;2023-10-19T10:16:16;22.67;;;14.02;;
66212;SDS011;53015;50.046;8.238;2023-10-19T10:18:43;26.17;;;15.57;;
66212;SDS011;53015;50.046;8.238;2023-10-19T10:21:10;28.88;;;16.13;;
66212;SDS011;53015;50.046;8.238;2023-10-19T10:23:40;25.33;;;15.57;;
66212;SDS011;53015;50.046;8.238;2023-10-19T10:26:07;26.13;;;15.70;;
66212;SDS011;53015;50.046;8.238;2023-10-19T10:28:33;27.95;;;16.15;;
66212;SDS011;53015;50.046;8.238;2023-10-19T10:31:12;28.40;;;15.13;;
66212;SDS011;53015;50.046;8.238;2023-10-19T10:33:39;25.10;;;15.23;;
66212;SDS011;53015;50.046;8.238;2023-10-19T10:36:06;25.70;;;14.63;;
66212;SDS011;53015;50.046;8.238;2023-10-19T10:38:33;23.17;;;14.07;;
66212;SDS011;53015;50.046;8.238;2023-10-19T10:40:59;24.80;;;14.13;;
66212;SDS011;53015;50.046;8.238;2023-10-19T10:43:26;25.92;;;15.25;;
66212;SDS011;53015;50.046;8.238;2023-10-19T10:45:51;29.08;;;15.60;;
66212;SDS011;53015;50.046;8.238;2023-10-19T10:48:27;28.17;;;15.38;;
66212;SDS011;53015;50.046;8.238;2023-10-19T10:50:52;27.20;;;16.50;;
66212;SDS011;53015;50.046;8.238;2023-10-19T10:53:18;27.63;;;15.43;;
66212;SDS011;53015;50.046;8.238;2023-10-19T10:55:43;29.52;;;15.85;;
66212;SDS011;53015;50.046;8.238;2023-10-19T10:58:09;29.10;;;17.30;;
66212;SDS011;53015;50.046;8.238;2023-10-19T11:00:34;27.02;;;16.50;;
66212;SDS011;53015;50.046;8.238;2023-10-19T11:03:07;25.75;;;15.77;;
66212;SDS011;53015;50.046;8.238;2023-10-19T11:05:34;26.67;;;16.80;;
66212;SDS011;53015;50.046;8.238;2023-10-19T11:08:05;26.27;;;15.73;;
66212;SDS011;53015;50.046;8.238;2023-10-19T11:10:32;26.40;;;15.77;;
66212;SDS011;53015;50.046;8.238;2023-10-19T11:12:59;27.48;;;15.18;;
66212;SDS011;53015;50.046;8.238;2023-10-19T11:15:25;24.33;;;14.80;;
66212;SDS011;53015;50.046;8.238;2023-10-19T11:17:51;24.80;;;14.98;;
66212;SDS011;53015;50.046;8.238;2023-10-19T11:20:23;23.92;;;14.93;;
66212;SDS011;53015;50.046;8.238;2023-10-19T11:22:52;23.30;;;15.15;;
66212;SDS011;53015;50.046;8.238;2023-10-19T11:25:18;23.15;;;15.45;;
66212;SDS011;53015;50.046;8.238;2023-10-19T11:27:44;28.08;;;16.98;;
66212;SDS011;53015;50.046;8.238;2023-10-19T11:30:11;27.67;;;16.58;;
66212;SDS011;53015;50.046;8.238;2023-10-19T11:32:37;25.60;;;15.88;;
66212;SDS011;53015;50.046;8.238;2023-10-19T11:35:03;27.38;;;16.33;;
66212;SDS011;53015;50.046;8.238;2023-10-19T11:37:29;28.10;;;17.45;;
66212;SDS011;53015;50.046;8.238;2023-10-19T11:39:56;28.45;;;15.95;;
66212;SDS011;53015;50.046;8.238;2023-10-19T11:42:22;31.88;;;17.23;;
66212;SDS011;53015;50.046;8.238;2023-10-19T11:44:47;34.60;;;16.73;;
66212;SDS011;53015;50.046;8.238;2023-10-19T11:47:13;29.95;;;16.30;;
66212;SDS011;53015;50.046;8.238;2023-10-19T11:49:38;29.92;;;15.93;;
66212;SDS011;53015;50.046;8.238;2023-10-19T11:52:04;27.60;;;16.83;;
66212;SDS011;53015;50.046;8.238;2023-10-19T11:54:30;28.23;;;16.55;;
66212;SDS011;53015;50.046;8.238;2023-10-19T11:56:57;27.40;;;16.38;;
66212;SDS011;53015;50.046;8.238;2023-10-19T11:59:22;26.45;;;16.45;;
66212;SDS011;53015;50.046;8.238;2023-10-19T12:01:48;23.48;;;15.48;;
66212;SDS011;53015;50.046;8.238;2023-10-19T12:04:13;27.08;;;15.75;;
66212;SDS011;53015;50.046;8.238;2023-10-19T12:06:39;22.92;;;15.48;;
66212;SDS011;53015;50.046;8.238;2023-10-19T12:09:04;23.35;;;15.35;;
66212;SDS011;53015;50.046;8.238;2023-10-19T12:11:30;26.42;;;15.10;;
66212;SDS011;53015;50.046;8.238;2023-10-19T12:13:57;22.92;;;15.15;;
66212;SDS011;53015;50.046;8.238;2023-10-19T12:16:22;24.85;;;15.43;;
66212;SDS011;53015;50.046;8.238;2023-10-19T12:18:48;24.17;;;15.57;;
66212;SDS011;53015;50.046;8.238;2023-10-19T12:21:14;22.45;;;15.10;;
66212;SDS011;53015;50.046;8.238;2023-10-19T12:23:39;23.35;;;16.08;;
66212;SDS011;53015;50.046;8.238;2023-10-19T12:26:08;22.20;;;14.23;;
66212;SDS011;53015;50.046;8.238;2023-10-19T12:28:34;24.95;;;15.05;;
66212;SDS011;53015;50.046;8.238;2023-10-19T12:31:00;25.88;;;16.15;;
66212;SDS011;53015;50.046;8.238;2023-10-19T12:33:26;24.90;;;14.82;;
66212;SDS011;53015;50.046;8.238;2023-10-19T12:35:51;21.92;;;14.02;;
66212;SDS011;53015;50.046;8.238;2023-10-19T12:38:17;25.75;;;15.98;;
66212;SDS011;53015;50.046;8.238;2023-10-19T12:40:43;31.70;;;16.52;;
66212;SDS011;53015;50.046;8.238;2023-10-19T12:43:08;25.52;;;15.98;;
66212;SDS011;53015;50.046;8.238;2023-10-19T12:45:34;27.90;;;16.08;;
66212;SDS011;53015;50.046;8.238;2023-10-19T12:48:01;25.40;;;16.17;;
66212;SDS011;53015;50.046;8.238;2023-10-19T12:50:26;28.95;;;14.90;;
66212;SDS011;53015;50.046;8.238;2023-10-19T12:52:52;24.27;;;15.63;;
66212;SDS011;53015;50.046;8.238;2023-10-19T12:55:17;26.90;;;16.40;;
66212;SDS011;53015;50.046;8.238;2023-10-19T12:57:43;30.27;;;16.85;;
66212;SDS011;53015;50.046;8.238;2023-10-19T13:00:09;30.92;;;16.35;;
66212;SDS011;53015;50.046;8.238;2023-10-19T13:02:35;24.58;;;15.63;;
66212;SDS011;53015;50.046;8.238;2023-10-19T13:05:02;21.92;;;15.05;;
66212;SDS011;53015;50.046;8.238;2023-10-19T13:07:28;25.15;;;15.93;;
66212;SDS011;53015;50.046;8.238;2023-10-19T13:09:53;24.73;;;16.30;;
66212;SDS011;53015;50.046;8.238;2023-10-19T13:12:19;24.52;;;15.77;;
66212;SDS011;53015;50.046;8.238;2023-10-19T13:14:44;24.17;;;15.02;;
66212;SDS011;53015;50.046;8.238;2023-10-19T13:17:10;25.33;;;15.95;;
66212;SDS011;53015;50.046;8.238;2023-10-19T13:19:35;23.90;;;15.02;;
66212;SDS011;53015;50.046;8.238;2023-10-19T13:22:02;29.30;;;16.60;;
66212;SDS011;53015;50.046;8.238;2023-10-19T13:24:27;26.85;;;16.10;;
66212;SDS011;53015;50.046;8.238;2023-10-19T13:26:53;29.92;;;17.38;;
66212;SDS011;53015;50.046;8.238;2023-10-19T13:29:18;25.50;;;15.32;;
66212;SDS011;53015;50.046;8.238;2023-10-19T13:31:44;25.25;;;16.85;;
66212;SDS011;53015;50.046;8.238;2023-10-19T13:34:09;27.15;;;16.63;;
66212;SDS011;53015;50.046;8.238;2023-10-19T13:36:35;29.05;;;16.67;;
66212;SDS011;53015;50.046;8.238;2023-10-19T13:39:01;23.83;;;15.02;;
66212;SDS011;53015;50.046;8.238;2023-10-19T13:41:27;30.20;;;17.13;;
66212;SDS011;53015;50.046;8.238;2023-10-19T13:43:52;30.85;;;18.48;;
66212;SDS011;53015;50.046;8.238;2023-10-19T13:46:18;35.75;;;19.55;;
66212;SDS011;53015;50.046;8.238;2023-10-19T13:48:43;26.88;;;16.60;;
66212;SDS011;53015;50.046;8.238;2023-10-19T13:51:09;28.23;;;15.77;;
66212;SDS011;53015;50.046;8.238;2023-10-19T13:53:34;28.02;;;15.63;;
66212;SDS011;53015;50.046;8.238;2023-10-19T13:56:01;24.52;;;16.40;;
66212;SDS011;53015;50.046;8.238;2023-10-19T13:58:26;24.50;;;16.10;;
66212;SDS011;53015;50.046;8.238;2023-10-19T14:00:52;23.67;;;15.57;;
66212;SDS011;53015;50.046;8.238;2023-10-19T14:03:17;25.40;;;15.82;;
66212;SDS011;53015;50.046;8.238;2023-10-19T14:05:43;23.55;;;16.08;;
66212;SDS011;53015;50.046;8.238;2023-10-19T14:08:10;29.63;;;16.08;;
66212;SDS011;53015;50.046;8.238;2023-10-19T14:10:36;24.23;;;16.23;;
66212;SDS011;53015;50.046;8.238;2023-10-19T14:13:03;22.42;;;15.23;;
66212;SDS011;53015;50.046;8.238;2023-10-19T14:15:29;22.92;;;15.05;;
66212;SDS011;53015;50.046;8.238;2023-10-19T14:17:55;23.23;;;15.07;;